sensor_id;sensor_type;location;lat;lon;timestamp;P1;P2;P0
76101;PMS7003;64830;46.910;6.354;2022-11-20T00:00:08;11.00;7.50;6.00
76101;PMS7003;64830;46.910;6.354;2022-11-20T00:02:34;10.00;9.00;6.00
76101;PMS7003;64830;46.910;6.354;2022-11-20T00:04:59;10.75;8.50;6.25
76101;PMS7003;64830;46.910;6.354;2022-11-20T00:07:25;8.50;8.50;6.00
76101;PMS7003;64830;46.910;6.354;2022-11-20T00:09:50;12.75;8.50;6.75
76101;PMS7003;64830;46.910;6.354;2022-11-20T00:12:15;11.00;10.50;8.00
76101;PMS7003;64830;46.910;6.354;2022-11-20T00:14:41;16.50;13.50;8.25
76101;PMS7003;64830;46.910;6.354;2022-11-20T00:17:06;29.50;24.75;18.25
76101;PMS7003;64830;46.910;6.354;2022-11-20T00:19:32;38.75;33.50;20.75
76101;PMS7003;64830;46.910;6.354;2022-11-20T00:21:57;25.50;20.25;12.75
76101;PMS7003;64830;46.910;6.354;2022-11-20T00:24:22;18.50;15.00;10.00
76101;PMS7003;64830;46.910;6.354;2022-11-20T00:26:48;10.00;8.25;6.00
76101;PMS7003;64830;46.910;6.354;2022-11-20T00:29:13;6.00;6.00;4.00
76101;PMS7003;64830;46.910;6.354;2022-11-20T00:31:39;8.25;6.25;4.50
76101;PMS7003;64830;46.910;6.354;2022-11-20T00:34:04;9.00;6.00;4.75
76101;PMS7003;64830;46.910;6.354;2022-11-20T00:36:31;10.25;9.50;6.75
76101;PMS7003;64830;46.910;6.354;2022-11-20T00:38:58;6.00;6.00;4.00
76101;PMS7003;64830;46.910;6.354;2022-11-20T00:41:25;6.75;5.25;4.00
76101;PMS7003;64830;46.910;6.354;2022-11-20T00:43:52;6.00;6.00;5.00
76101;PMS7003;64830;46.910;6.354;2022-11-20T00:46:19;1.00;1.00;0.00
76101;PMS7003;64830;46.910;6.354;2022-11-20T00:48:46;7.00;7.00;5.00
76101;PMS7003;64830;46.910;6.354;2022-11-20T00:51:13;13.00;11.00;7.00
76101;PMS7003;64830;46.910;6.354;2022-11-20T00:53:40;12.50;12.00;6.25
76101;PMS7003;64830;46.910;6.354;2022-11-20T00:56:06;24.50;17.25;10.00
76101;PMS7003;64830;46.910;6.354;2022-11-20T00:58:36;20.75;15.00;8.75
76101;PMS7003;64830;46.910;6.354;2022-11-20T01:01:24;14.00;14.00;10.00
76101;PMS7003;64830;46.910;6.354;2022-11-20T01:03:51;13.50;11.50;7.75
76101;PMS7003;64830;46.910;6.354;2022-11-20T01:06:21;11.25;9.00;6.00
76101;PMS7003;64830;46.910;6.354;2022-11-20T01:08:49;9.00;8.50;5.00
76101;PMS7003;64830;46.910;6.354;2022-11-20T01:11:19;11.75;9.00;5.00
76101;PMS7003;64830;46.910;6.354;2022-11-20T01:13:46;9.75;8.00;5.00
76101;PMS7003;64830;46.910;6.354;2022-11-20T01:16:17;6.25;6.25;5.00
76101;PMS7003;64830;46.910;6.354;2022-11-20T01:18:46;7.50;5.00;4.00
76101;PMS7003;64830;46.910;6.354;2022-11-20T01:21:16;7.25;7.25;5.00
76101;PMS7003;64830;46.910;6.354;2022-11-20T01:23:44;9.75;5.25;5.00
76101;PMS7003;64830;46.910;6.354;2022-11-20T01:26:11;9.75;6.75;5.25
76101;PMS7003;64830;46.910;6.354;2022-11-20T01:28:39;14.00;14.00;10.25
76101;PMS7003;64830;46.910;6.354;2022-11-20T01:31:20;12.75;12.75;8.75
76101;PMS7003;64830;46.910;6.354;2022-11-20T01:33:49;25.00;22.25;14.25
76101;PMS7003;64830;46.910;6.354;2022-11-20T01:36:17;13.00;13.00;6.50
76101;PMS7003;64830;46.910;6.354;2022-11-20T01:38:45;13.50;10.50;5.75
76101;PMS7003;64830;46.910;6.354;2022-11-20T01:41:11;14.25;9.00;6.75
76101;PMS7003;64830;46.910;6.354;2022-11-20T01:43:57;9.75;9.50;6.75
76101;PMS7003;64830;46.910;6.354;2022-11-20T01:46:23;7.25;7.25;5.25
76101;PMS7003;64830;46.910;6.354;2022-11-20T01:51:27;9.50;6.00;4.25
76101;PMS7003;64830;46.910;6.354;2022-11-20T01:53:59;7.50;6.00;5.00
76101;PMS7003;64830;46.910;6.354;2022-11-20T01:56:26;5.25;5.25;4.00
76101;PMS7003;64830;46.910;6.354;2022-11-20T01:58:56;6.50;5.00;3.75
76101;PMS7003;64830;46.910;6.354;2022-11-20T02:01:25;5.50;4.75;3.75
76101;PMS7003;64830;46.910;6.354;2022-11-20T02:03:51;9.50;5.00;4.00
76101;PMS7003;64830;46.910;6.354;2022-11-20T02:06:24;6.00;5.00;2.00
76101;PMS7003;64830;46.910;6.354;2022-11-20T02:08:52;1.25;1.00;0.50
76101;PMS7003;64830;46.910;6.354;2022-11-20T02:11:19;2.75;2.25;2.00
76101;PMS7003;64830;46.910;6.354;2022-11-20T02:13:45;3.00;3.00;2.00
76101;PMS7003;64830;46.910;6.354;2022-11-20T02:16:25;5.00;4.00;2.00
76101;PMS7003;64830;46.910;6.354;2022-11-20T02:18:53;5.50;4.00;1.50
76101;PMS7003;64830;46.910;6.354;2022-11-20T02:24:05;6.75;5.00;2.75
76101;PMS7003;64830;46.910;6.354;2022-11-20T02:26:41;4.25;1.75;0.75
76101;PMS7003;64830;46.910;6.354;2022-11-20T02:29:23;4.00;3.00;1.50
76101;PMS7003;64830;46.910;6.354;2022-11-20T02:31:57;4.25;2.50;2.00
76101;PMS7003;64830;46.910;6.354;2022-11-20T02:34:26;2.00;2.00;1.75
76101;PMS7003;64830;46.910;6.354;2022-11-20T02:36:51;3.50;2.00;1.00
76101;PMS7003;64830;46.910;6.354;2022-11-20T02:39:18;3.50;3.50;2.00
76101;PMS7003;64830;46.910;6.354;2022-11-20T02:41:45;5.00;2.00;1.00
76101;PMS7003;64830;46.910;6.354;2022-11-20T02:44:11;5.50;3.75;2.00
76101;PMS7003;64830;46.910;6.354;2022-11-20T02:46:37;2.75;2.75;1.50
76101;PMS7003;64830;46.910;6.354;2022-11-20T02:49:02;3.75;1.00;1.00
76101;PMS7003;64830;46.910;6.354;2022-11-20T02:51:29;2.25;2.25;1.00
76101;PMS7003;64830;46.910;6.354;2022-11-20T02:53:55;3.00;2.00;1.00
76101;PMS7003;64830;46.910;6.354;2022-11-20T02:56:20;3.50;3.50;2.00
76101;PMS7003;64830;46.910;6.354;2022-11-20T02:58:46;2.00;2.00;1.00
76101;PMS7003;64830;46.910;6.354;2022-11-20T03:01:11;3.25;3.25;1.50
76101;PMS7003;64830;46.910;6.354;2022-11-20T03:03:36;4.00;1.00;1.00
76101;PMS7003;64830;46.910;6.354;2022-11-20T03:06:02;3.25;1.75;1.50
76101;PMS7003;64830;46.910;6.354;2022-11-20T03:08:27;1.75;1.75;1.00
76101;PMS7003;64830;46.910;6.354;2022-11-20T03:10:53;2.75;2.75;1.00
76101;PMS7003;64830;46.910;6.354;2022-11-20T03:13:18;2.00;2.00;1.00
76101;PMS7003;64830;46.910;6.354;2022-11-20T03:15:44;1.00;1.00;0.75
76101;PMS7003;64830;46.910;6.354;2022-11-20T03:18:09;4.00;3.00;2.00
76101;PMS7003;64830;46.910;6.354;2022-11-20T03:20:34;3.75;2.00;1.50
76101;PMS7003;64830;46.910;6.354;2022-11-20T03:23:00;3.00;1.50;1.50
76101;PMS7003;64830;46.910;6.354;2022-11-20T03:25:26;5.25;3.25;2.00
76101;PMS7003;64830;46.910;6.354;2022-11-20T03:27:52;2.50;2.50;2.00
76101;PMS7003;64830;46.910;6.354;2022-11-20T03:30:17;2.00;2.00;1.00
76101;PMS7003;64830;46.910;6.354;2022-11-20T03:32:42;1.00;1.00;1.00
76101;PMS7003;64830;46.910;6.354;2022-11-20T03:35:09;5.25;5.00;3.25
76101;PMS7003;64830;46.910;6.354;2022-11-20T03:37:35;11.00;9.00;6.25
76101;PMS7003;64830;46.910;6.354;2022-11-20T03:40:00;9.50;9.00;6.00
76101;PMS7003;64830;46.910;6.354;2022-11-20T03:42:26;8.75;8.25;5.25
76101;PMS7003;64830;46.910;6.354;2022-11-20T03:45:09;7.25;5.00;4.00
76101;PMS7003;64830;46.910;6.354;2022-11-20T03:47:35;6.00;6.00;5.00
76101;PMS7003;64830;46.910;6.354;2022-11-20T03:50:00;6.75;5.75;5.00
76101;PMS7003;64830;46.910;6.354;2022-11-20T03:52:26;5.00;5.00;2.25
76101;PMS7003;64830;46.910;6.354;2022-11-20T03:54:51;6.00;6.00;4.50
76101;PMS7003;64830;46.910;6.354;2022-11-20T03:57:16;6.00;6.00;5.00
76101;PMS7003;64830;46.910;6.354;2022-11-20T03:59:42;8.75;8.75;5.00
76101;PMS7003;64830;46.910;6.354;2022-11-20T04:02:07;5.00;5.00;4.75
76101;PMS7003;64830;46.910;6.354;2022-11-20T04:04:33;8.75;6.75;5.00
76101;PMS7003;64830;46.910;6.354;2022-11-20T04:06:58;5.00;3.50;2.00
76101;PMS7003;64830;46.910;6.354;2022-11-20T04:09:23;3.25;1.75;1.50
76101;PMS7003;64830;46.910;6.354;2022-11-20T04:11:49;2.00;2.00;1.00
76101;PMS7003;64830;46.910;6.354;2022-11-20T04:14:16;2.50;2.00;1.25
76101;PMS7003;64830;46.910;6.354;2022-11-20T04:16:42;2.75;2.75;1.00
76101;PMS7003;64830;46.910;6.354;2022-11-20T04:19:14;8.00;4.25;1.75
76101;PMS7003;64830;46.910;6.354;2022-11-20T04:21:41;5.75;5.00;2.00
76101;PMS7003;64830;46.910;6.354;2022-11-20T04:24:08;5.50;3.25;2.00
76101;PMS7003;64830;46.910;6.354;2022-11-20T04:26:35;5.50;5.00;4.00
76101;PMS7003;64830;46.910;6.354;2022-11-20T04:29:00;4.00;3.50;2.00
76101;PMS7003;64830;46.910;6.354;2022-11-20T04:31:30;4.00;2.00;2.00
76101;PMS7003;64830;46.910;6.354;2022-11-20T04:34:01;4.75;4.75;2.00
76101;PMS7003;64830;46.910;6.354;2022-11-20T04:36:29;5.25;5.25;1.75
76101;PMS7003;64830;46.910;6.354;2022-11-20T04:38:56;5.00;2.00;1.25
76101;PMS7003;64830;46.910;6.354;2022-11-20T04:41:24;1.25;1.25;1.00
76101;PMS7003;64830;46.910;6.354;2022-11-20T04:43:52;4.00;4.00;4.00
76101;PMS7003;64830;46.910;6.354;2022-11-20T04:46:23;4.25;4.00;2.00
76101;PMS7003;64830;46.910;6.354;2022-11-20T04:48:49;4.25;4.25;3.75
76101;PMS7003;64830;46.910;6.354;2022-11-20T04:51:14;2.25;2.25;2.00
76101;PMS7003;64830;46.910;6.354;2022-11-20T04:53:40;2.00;2.00;1.00
76101;PMS7003;64830;46.910;6.354;2022-11-20T04:56:07;5.25;4.75;2.00
76101;PMS7003;64830;46.910;6.354;2022-11-20T04:58:34;4.00;4.00;3.00
76101;PMS7003;64830;46.910;6.354;2022-11-20T05:01:10;8.75;7.25;5.00
76101;PMS7003;64830;46.910;6.354;2022-11-20T05:03:38;11.25;9.00;5.00
76101;PMS7003;64830;46.910;6.354;2022-11-20T05:06:05;7.00;7.00;5.25
76101;PMS7003;64830;46.910;6.354;2022-11-20T05:08:32;8.75;8.75;5.00
76101;PMS7003;64830;46.910;6.354;2022-11-20T05:11:02;9.00;8.25;5.00
76101;PMS7003;64830;46.910;6.354;2022-11-20T05:13:32;5.25;3.50;2.00
76101;PMS7003;64830;46.910;6.354;2022-11-20T05:16:01;6.50;4.00;2.50
76101;PMS7003;64830;46.910;6.354;2022-11-20T05:18:30;8.00;6.00;5.25
76101;PMS7003;64830;46.910;6.354;2022-11-20T05:20:58;8.00;6.00;4.50
76101;PMS7003;64830;46.910;6.354;2022-11-20T05:23:24;7.50;5.00;2.00
76101;PMS7003;64830;46.910;6.354;2022-11-20T05:25:53;8.00;8.00;7.00
76101;PMS7003;64830;46.910;6.354;2022-11-20T05:28:20;17.75;14.50;10.25
76101;PMS7003;64830;46.910;6.354;2022-11-20T05:30:45;9.00;8.00;5.25
76101;PMS7003;64830;46.910;6.354;2022-11-20T05:33:11;12.00;9.75;7.00
76101;PMS7003;64830;46.910;6.354;2022-11-20T05:35:36;6.25;5.00;4.00
76101;PMS7003;64830;46.910;6.354;2022-11-20T05:38:02;3.75;2.00;1.00
76101;PMS7003;64830;46.910;6.354;2022-11-20T05:40:27;4.50;2.50;2.00
76101;PMS7003;64830;46.910;6.354;2022-11-20T05:42:52;2.75;2.00;1.25
76101;PMS7003;64830;46.910;6.354;2022-11-20T05:45:18;6.75;3.50;2.00
76101;PMS7003;64830;46.910;6.354;2022-11-20T05:47:43;5.50;4.75;4.75
76101;PMS7003;64830;46.910;6.354;2022-11-20T05:50:09;4.00;2.00;1.75
76101;PMS7003;64830;46.910;6.354;2022-11-20T05:52:34;2.25;0.50;0.00
76101;PMS7003;64830;46.910;6.354;2022-11-20T05:54:59;0.00;0.00;0.00
76101;PMS7003;64830;46.910;6.354;2022-11-20T05:57:25;0.00;0.00;0.00
76101;PMS7003;64830;46.910;6.354;2022-11-20T05:59:50;1.75;1.75;1.75
76101;PMS7003;64830;46.910;6.354;2022-11-20T06:02:16;0.25;0.00;0.00
76101;PMS7003;64830;46.910;6.354;2022-11-20T06:04:41;1.50;1.50;0.00
76101;PMS7003;64830;46.910;6.354;2022-11-20T06:07:07;0.00;0.00;0.00
76101;PMS7003;64830;46.910;6.354;2022-11-20T06:09:32;1.00;0.00;0.00
76101;PMS7003;64830;46.910;6.354;2022-11-20T06:11:58;0.00;0.00;0.00
76101;PMS7003;64830;46.910;6.354;2022-11-20T06:14:23;0.00;0.00;0.00
76101;PMS7003;64830;46.910;6.354;2022-11-20T06:16:49;0.00;0.00;0.00
76101;PMS7003;64830;46.910;6.354;2022-11-20T06:19:14;0.00;0.00;0.00
76101;PMS7003;64830;46.910;6.354;2022-11-20T06:21:40;0.00;0.00;0.00
76101;PMS7003;64830;46.910;6.354;2022-11-20T06:24:06;0.00;0.00;0.00
76101;PMS7003;64830;46.910;6.354;2022-11-20T06:26:32;0.00;0.00;0.00
76101;PMS7003;64830;46.910;6.354;2022-11-20T06:28:57;0.00;0.00;0.00
76101;PMS7003;64830;46.910;6.354;2022-11-20T06:31:23;0.75;0.75;0.00
76101;PMS7003;64830;46.910;6.354;2022-11-20T06:33:50;0.00;0.00;0.00
76101;PMS7003;64830;46.910;6.354;2022-11-20T06:36:17;0.00;0.00;0.00
76101;PMS7003;64830;46.910;6.354;2022-11-20T06:38:44;0.00;0.00;0.00
76101;PMS7003;64830;46.910;6.354;2022-11-20T06:41:11;0.00;0.00;0.00
76101;PMS7003;64830;46.910;6.354;2022-11-20T06:43:38;0.00;0.00;0.00
76101;PMS7003;64830;46.910;6.354;2022-11-20T06:46:03;0.50;0.00;0.00
76101;PMS7003;64830;46.910;6.354;2022-11-20T06:48:29;0.00;0.00;0.00
76101;PMS7003;64830;46.910;6.354;2022-11-20T06:50:55;0.00;0.00;0.00
76101;PMS7003;64830;46.910;6.354;2022-11-20T06:53:21;0.00;0.00;0.00
76101;PMS7003;64830;46.910;6.354;2022-11-20T06:55:49;0.00;0.00;0.00
76101;PMS7003;64830;46.910;6.354;2022-11-20T06:58:15;0.00;0.00;0.00
76101;PMS7003;64830;46.910;6.354;2022-11-20T07:00:41;0.00;0.00;0.00
76101;PMS7003;64830;46.910;6.354;2022-11-20T07:03:07;0.50;0.50;0.00
76101;PMS7003;64830;46.910;6.354;2022-11-20T07:05:34;0.00;0.00;0.00
76101;PMS7003;64830;46.910;6.354;2022-11-20T07:08:00;0.00;0.00;0.00
76101;PMS7003;64830;46.910;6.354;2022-11-20T07:10:26;1.00;1.00;0.75
76101;PMS7003;64830;46.910;6.354;2022-11-20T07:12:52;0.00;0.00;0.00
76101;PMS7003;64830;46.910;6.354;2022-11-20T07:15:19;0.25;0.00;0.00
76101;PMS7003;64830;46.910;6.354;2022-11-20T07:17:45;0.00;0.00;0.00
76101;PMS7003;64830;46.910;6.354;2022-11-20T07:20:10;0.25;0.25;0.00
76101;PMS7003;64830;46.910;6.354;2022-11-20T07:22:36;5.25;5.25;4.00
76101;PMS7003;64830;46.910;6.354;2022-11-20T07:25:02;1.00;1.00;1.00
76101;PMS7003;64830;46.910;6.354;2022-11-20T07:27:29;2.50;1.00;1.00
76101;PMS7003;64830;46.910;6.354;2022-11-20T07:29:54;2.00;2.00;2.00
76101;PMS7003;64830;46.910;6.354;2022-11-20T07:32:20;1.75;1.75;0.50
76101;PMS7003;64830;46.910;6.354;2022-11-20T07:34:45;3.25;1.00;0.75
76101;PMS7003;64830;46.910;6.354;2022-11-20T07:37:11;2.50;2.50;2.00
76101;PMS7003;64830;46.910;6.354;2022-11-20T07:39:37;0.75;0.75;0.75
76101;PMS7003;64830;46.910;6.354;2022-11-20T07:42:02;1.00;1.00;1.00
76101;PMS7003;64830;46.910;6.354;2022-11-20T07:44:27;1.75;1.00;1.00
76101;PMS7003;64830;46.910;6.354;2022-11-20T07:46:53;3.25;1.75;1.00
76101;PMS7003;64830;46.910;6.354;2022-11-20T07:49:18;2.00;2.00;1.00
76101;PMS7003;64830;46.910;6.354;2022-11-20T07:51:43;1.00;0.25;0.25
76101;PMS7003;64830;46.910;6.354;2022-11-20T07:54:09;4.00;2.50;1.00
76101;PMS7003;64830;46.910;6.354;2022-11-20T07:56:34;0.00;0.00;0.00
76101;PMS7003;64830;46.910;6.354;2022-11-20T07:58:59;0.00;0.00;0.00
76101;PMS7003;64830;46.910;6.354;2022-11-20T08:01:25;0.00;0.00;0.00
76101;PMS7003;64830;46.910;6.354;2022-11-20T08:03:50;0.00;0.00;0.00
76101;PMS7003;64830;46.910;6.354;2022-11-20T08:06:16;0.00;0.00;0.00
76101;PMS7003;64830;46.910;6.354;2022-11-20T08:08:42;1.00;0.00;0.00
76101;PMS7003;64830;46.910;6.354;2022-11-20T08:11:08;2.00;2.00;1.00
76101;PMS7003;64830;46.910;6.354;2022-11-20T08:13:51;2.00;1.00;1.00
76101;PMS7003;64830;46.910;6.354;2022-11-20T08:16:35;2.00;2.00;1.00
76101;PMS7003;64830;46.910;6.354;2022-11-20T08:19:01;1.50;1.00;1.00
76101;PMS7003;64830;46.910;6.354;2022-11-20T08:21:26;0.00;0.00;0.00
76101;PMS7003;64830;46.910;6.354;2022-11-20T08:23:51;1.00;1.00;0.00
76101;PMS7003;64830;46.910;6.354;2022-11-20T08:26:17;1.50;1.50;1.00
76101;PMS7003;64830;46.910;6.354;2022-11-20T08:28:42;1.00;1.00;1.00
76101;PMS7003;64830;46.910;6.354;2022-11-20T08:31:08;0.00;0.00;0.00
76101;PMS7003;64830;46.910;6.354;2022-11-20T08:33:34;2.00;2.00;1.00
76101;PMS7003;64830;46.910;6.354;2022-11-20T08:36:00;1.50;1.50;1.00
76101;PMS7003;64830;46.910;6.354;2022-11-20T08:38:26;16.50;13.00;9.50
76101;PMS7003;64830;46.910;6.354;2022-11-20T08:40:51;4.75;4.50;2.00
76101;PMS7003;64830;46.910;6.354;2022-11-20T08:43:39;4.00;2.00;1.00
76101;PMS7003;64830;46.910;6.354;2022-11-20T08:46:05;0.00;0.00;0.00
76101;PMS7003;64830;46.910;6.354;2022-11-20T08:48:30;0.25;0.25;0.25
76101;PMS7003;64830;46.910;6.354;2022-11-20T08:50:57;0.00;0.00;0.00
76101;PMS7003;64830;46.910;6.354;2022-11-20T08:53:24;0.00;0.00;0.00
76101;PMS7003;64830;46.910;6.354;2022-11-20T08:55:49;0.00;0.00;0.00
76101;PMS7003;64830;46.910;6.354;2022-11-20T08:58:15;1.00;1.00;0.00
76101;PMS7003;64830;46.910;6.354;2022-11-20T09:00:40;1.00;1.00;1.00
76101;PMS7003;64830;46.910;6.354;2022-11-20T09:03:05;2.00;1.00;1.00
76101;PMS7003;64830;46.910;6.354;2022-11-20T09:05:31;3.25;1.00;1.00
76101;PMS7003;64830;46.910;6.354;2022-11-20T09:07:57;2.00;2.00;1.75
76101;PMS7003;64830;46.910;6.354;2022-11-20T09:10:22;1.00;1.00;0.00
76101;PMS7003;64830;46.910;6.354;2022-11-20T09:12:48;3.00;0.75;0.75
76101;PMS7003;64830;46.910;6.354;2022-11-20T09:15:14;0.00;0.00;0.00
76101;PMS7003;64830;46.910;6.354;2022-11-20T09:17:40;1.00;1.00;0.00
76101;PMS7003;64830;46.910;6.354;2022-11-20T09:20:05;1.25;1.25;1.00
76101;PMS7003;64830;46.910;6.354;2022-11-20T09:22:31;1.50;1.50;1.00
76101;PMS7003;64830;46.910;6.354;2022-11-20T09:24:56;0.75;0.75;0.00
76101;PMS7003;64830;46.910;6.354;2022-11-20T09:27:21;1.50;1.50;1.00
76101;PMS7003;64830;46.910;6.354;2022-11-20T09:29:47;1.75;1.00;1.00
76101;PMS7003;64830;46.910;6.354;2022-11-20T09:32:12;3.50;2.50;2.00
76101;PMS7003;64830;46.910;6.354;2022-11-20T09:34:38;6.00;2.75;1.75
76101;PMS7003;64830;46.910;6.354;2022-11-20T09:37:03;1.00;1.00;1.00
76101;PMS7003;64830;46.910;6.354;2022-11-20T09:39:28;2.00;1.75;1.00
76101;PMS7003;64830;46.910;6.354;2022-11-20T09:42:05;2.25;2.00;2.00
76101;PMS7003;64830;46.910;6.354;2022-11-20T09:55:38;2.00;2.00;1.00
76101;PMS7003;64830;46.910;6.354;2022-11-20T09:58:11;1.00;1.00;0.00
76101;PMS7003;64830;46.910;6.354;2022-11-20T10:00:45;0.25;0.25;0.00
76101;PMS7003;64830;46.910;6.354;2022-11-20T10:03:26;1.75;0.75;0.00
76101;PMS7003;64830;46.910;6.354;2022-11-20T10:06:16;5.00;1.25;1.00
76101;PMS7003;64830;46.910;6.354;2022-11-20T10:08:47;1.00;1.00;0.25
76101;PMS7003;64830;46.910;6.354;2022-11-20T10:16:57;4.75;2.25;1.50
76101;PMS7003;64830;46.910;6.354;2022-11-20T10:32:54;1.50;1.50;1.00
76101;PMS7003;64830;46.910;6.354;2022-11-20T10:35:45;2.75;2.75;0.25
76101;PMS7003;64830;46.910;6.354;2022-11-20T10:38:33;1.50;1.50;1.00
76101;PMS7003;64830;46.910;6.354;2022-11-20T10:41:03;2.00;2.00;1.00
76101;PMS7003;64830;46.910;6.354;2022-11-20T10:43:50;1.50;1.50;1.00
76101;PMS7003;64830;46.910;6.354;2022-11-20T10:46:22;3.00;1.00;1.00
76101;PMS7003;64830;46.910;6.354;2022-11-20T10:48:48;2.50;1.00;1.00
76101;PMS7003;64830;46.910;6.354;2022-11-20T10:56:30;1.50;1.00;1.00
76101;PMS7003;64830;46.910;6.354;2022-11-20T11:01:26;1.75;1.00;0.25
76101;PMS7003;64830;46.910;6.354;2022-11-20T11:03:52;0.75;0.75;0.75
76101;PMS7003;64830;46.910;6.354;2022-11-20T11:06:39;1.00;1.00;0.00
76101;PMS7003;64830;46.910;6.354;2022-11-20T11:09:10;2.75;1.75;0.00
76101;PMS7003;64830;46.910;6.354;2022-11-20T11:11:39;2.00;1.25;1.00
76101;PMS7003;64830;46.910;6.354;2022-11-20T11:14:10;2.00;0.50;0.50
76101;PMS7003;64830;46.910;6.354;2022-11-20T11:16:55;2.25;1.00;1.00
76101;PMS7003;64830;46.910;6.354;2022-11-20T11:19:22;1.00;1.00;0.25
76101;PMS7003;64830;46.910;6.354;2022-11-20T11:21:52;2.00;1.75;1.00
76101;PMS7003;64830;46.910;6.354;2022-11-20T11:24:23;1.25;1.25;1.00
76101;PMS7003;64830;46.910;6.354;2022-11-20T11:26:57;1.75;1.00;0.50
76101;PMS7003;64830;46.910;6.354;2022-11-20T11:29:24;0.00;0.00;0.00
76101;PMS7003;64830;46.910;6.354;2022-11-20T11:32:07;0.00;0.00;0.00
76101;PMS7003;64830;46.910;6.354;2022-11-20T11:34:36;0.25;0.00;0.00
76101;PMS7003;64830;46.910;6.354;2022-11-20T11:37:02;0.00;0.00;0.00
76101;PMS7003;64830;46.910;6.354;2022-11-20T11:39:30;5.25;3.50;2.00
76101;PMS7003;64830;46.910;6.354;2022-11-20T11:41:58;2.00;2.00;1.00
76101;PMS7003;64830;46.910;6.354;2022-11-20T11:44:33;2.00;1.00;1.00
76101;PMS7003;64830;46.910;6.354;2022-11-20T11:47:25;2.00;1.00;0.25
76101;PMS7003;64830;46.910;6.354;2022-11-20T11:55:29;1.00;1.00;0.00
76101;PMS7003;64830;46.910;6.354;2022-11-20T12:00:34;1.00;1.00;1.00
76101;PMS7003;64830;46.910;6.354;2022-11-20T12:03:07;2.25;0.00;0.00
76101;PMS7003;64830;46.910;6.354;2022-11-20T12:05:47;1.00;0.00;0.00
76101;PMS7003;64830;46.910;6.354;2022-11-20T12:08:22;1.00;0.00;0.00
76101;PMS7003;64830;46.910;6.354;2022-11-20T12:10:56;1.00;1.00;1.00
76101;PMS7003;64830;46.910;6.354;2022-11-20T12:16:19;0.25;0.25;0.00
76101;PMS7003;64830;46.910;6.354;2022-11-20T12:18:45;1.00;1.00;1.00
76101;PMS7003;64830;46.910;6.354;2022-11-20T12:30:12;3.00;3.00;3.00
76101;PMS7003;64830;46.910;6.354;2022-11-20T12:35:18;1.00;1.00;0.00
76101;PMS7003;64830;46.910;6.354;2022-11-20T12:43:44;3.00;3.00;2.00
76101;PMS7003;64830;46.910;6.354;2022-11-20T12:46:42;1.00;1.00;0.25
76101;PMS7003;64830;46.910;6.354;2022-11-20T12:51:59;1.00;1.00;0.75
76101;PMS7003;64830;46.910;6.354;2022-11-20T13:00:10;2.00;2.00;2.00
76101;PMS7003;64830;46.910;6.354;2022-11-20T13:07:44;7.75;7.75;5.75
76101;PMS7003;64830;46.910;6.354;2022-11-20T13:10:18;9.75;7.50;6.00
76101;PMS7003;64830;46.910;6.354;2022-11-20T13:13:00;3.00;3.00;3.00
76101;PMS7003;64830;46.910;6.354;2022-11-20T13:15:42;1.50;1.50;1.00
76101;PMS7003;64830;46.910;6.354;2022-11-20T13:18:10;2.00;0.00;0.00
76101;PMS7003;64830;46.910;6.354;2022-11-20T13:20:40;2.50;2.00;1.00
76101;PMS7003;64830;46.910;6.354;2022-11-20T13:23:07;4.25;4.25;2.00
76101;PMS7003;64830;46.910;6.354;2022-11-20T13:25:36;2.00;1.75;1.00
76101;PMS7003;64830;46.910;6.354;2022-11-20T13:28:04;5.00;5.00;3.00
76101;PMS7003;64830;46.910;6.354;2022-11-20T13:30:52;1.00;1.00;0.50
76101;PMS7003;64830;46.910;6.354;2022-11-20T13:35:55;0.00;0.00;0.00
76101;PMS7003;64830;46.910;6.354;2022-11-20T13:38:22;1.50;1.00;0.75
76101;PMS7003;64830;46.910;6.354;2022-11-20T13:40:52;1.75;1.75;1.00
76101;PMS7003;64830;46.910;6.354;2022-11-20T13:46:14;1.00;1.00;1.00
76101;PMS7003;64830;46.910;6.354;2022-11-20T13:48:43;3.00;2.25;2.00
76101;PMS7003;64830;46.910;6.354;2022-11-20T14:03:12;0.75;0.75;0.75
76101;PMS7003;64830;46.910;6.354;2022-11-20T14:05:50;1.00;1.00;1.00
76101;PMS7003;64830;46.910;6.354;2022-11-20T14:08:26;2.00;1.00;0.00
76101;PMS7003;64830;46.910;6.354;2022-11-20T14:11:24;0.00;0.00;0.00
76101;PMS7003;64830;46.910;6.354;2022-11-20T14:13:58;2.00;2.00;1.00
76101;PMS7003;64830;46.910;6.354;2022-11-20T14:16:38;1.75;1.50;0.75
76101;PMS7003;64830;46.910;6.354;2022-11-20T14:21:45;2.75;2.00;1.50
76101;PMS7003;64830;46.910;6.354;2022-11-20T14:24:11;1.75;1.75;1.25
76101;PMS7003;64830;46.910;6.354;2022-11-20T14:26:41;2.75;1.25;1.00
76101;PMS7003;64830;46.910;6.354;2022-11-20T14:29:18;1.25;1.00;1.00
76101;PMS7003;64830;46.910;6.354;2022-11-20T14:31:47;2.75;2.00;1.00
76101;PMS7003;64830;46.910;6.354;2022-11-20T14:34:17;1.50;1.50;0.00
76101;PMS7003;64830;46.910;6.354;2022-11-20T14:36:47;1.00;1.00;0.75
76101;PMS7003;64830;46.910;6.354;2022-11-20T14:39:20;2.50;1.00;1.00
76101;PMS7003;64830;46.910;6.354;2022-11-20T14:41:50;1.75;1.75;0.00
76101;PMS7003;64830;46.910;6.354;2022-11-20T14:44:17;0.00;0.00;0.00
76101;PMS7003;64830;46.910;6.354;2022-11-20T14:46:42;1.00;1.00;0.00
76101;PMS7003;64830;46.910;6.354;2022-11-20T14:49:08;1.00;1.00;0.00
76101;PMS7003;64830;46.910;6.354;2022-11-20T14:51:37;1.00;1.00;1.00
76101;PMS7003;64830;46.910;6.354;2022-11-20T14:54:16;0.00;0.00;0.00
76101;PMS7003;64830;46.910;6.354;2022-11-20T14:59:25;1.00;1.00;0.00
76101;PMS7003;64830;46.910;6.354;2022-11-20T15:01:55;3.50;3.50;1.50
76101;PMS7003;64830;46.910;6.354;2022-11-20T15:04:23;2.75;2.75;2.00
76101;PMS7003;64830;46.910;6.354;2022-11-20T15:06:50;2.00;2.00;2.00
76101;PMS7003;64830;46.910;6.354;2022-11-20T15:09:18;4.75;2.75;2.00
76101;PMS7003;64830;46.910;6.354;2022-11-20T15:12:03;5.25;2.75;2.00
76101;PMS7003;64830;46.910;6.354;2022-11-20T15:14:30;3.50;3.00;2.00
76101;PMS7003;64830;46.910;6.354;2022-11-20T15:16:57;2.50;1.75;1.00
76101;PMS7003;64830;46.910;6.354;2022-11-20T15:19:24;2.00;1.50;1.00
76101;PMS7003;64830;46.910;6.354;2022-11-20T15:21:51;3.25;2.75;2.00
76101;PMS7003;64830;46.910;6.354;2022-11-20T15:24:17;2.75;2.00;1.25
76101;PMS7003;64830;46.910;6.354;2022-11-20T15:26:43;1.00;1.00;1.00
76101;PMS7003;64830;46.910;6.354;2022-11-20T15:29:12;3.00;3.00;2.25
76101;PMS7003;64830;46.910;6.354;2022-11-20T15:31:39;1.00;1.00;0.75
76101;PMS7003;64830;46.910;6.354;2022-11-20T15:34:12;2.00;2.00;1.00
76101;PMS7003;64830;46.910;6.354;2022-11-20T15:36:39;4.50;4.50;2.75
76101;PMS7003;64830;46.910;6.354;2022-11-20T15:39:05;3.50;3.00;2.00
76101;PMS7003;64830;46.910;6.354;2022-11-20T15:41:32;2.00;2.00;2.00
76101;PMS7003;64830;46.910;6.354;2022-11-20T15:43:58;5.00;3.00;2.75
76101;PMS7003;64830;46.910;6.354;2022-11-20T15:46:27;1.00;0.50;0.00
76101;PMS7003;64830;46.910;6.354;2022-11-20T15:48:55;1.75;0.75;0.75
76101;PMS7003;64830;46.910;6.354;2022-11-20T15:51:26;1.00;1.00;1.00
76101;PMS7003;64830;46.910;6.354;2022-11-20T15:53:52;1.50;1.50;1.50
76101;PMS7003;64830;46.910;6.354;2022-11-20T15:56:17;0.25;0.25;0.25
76101;PMS7003;64830;46.910;6.354;2022-11-20T15:58:43;1.25;1.25;1.00
76101;PMS7003;64830;46.910;6.354;2022-11-20T16:01:10;3.00;1.75;1.50
76101;PMS7003;64830;46.910;6.354;2022-11-20T16:03:36;1.00;1.00;1.00
76101;PMS7003;64830;46.910;6.354;2022-11-20T16:06:02;3.00;3.00;2.00
76101;PMS7003;64830;46.910;6.354;2022-11-20T16:08:27;2.25;2.25;2.00
76101;PMS7003;64830;46.910;6.354;2022-11-20T16:10:53;5.00;3.00;2.00
76101;PMS7003;64830;46.910;6.354;2022-11-20T16:13:18;2.25;2.25;1.50
76101;PMS7003;64830;46.910;6.354;2022-11-20T16:16:07;0.50;0.50;0.50